Time;durP1;ratioP1;P1;durP2;ratioP2;P2;SDS_P1;SDS_P2;PMS_P1;PMS_P2;Temp;Humidity;BMP_temperature;BMP_pressure;BME280_temperature;BME280_humidity;BME280_pressure;Samples;Min_cycle;Max_cycle;Signal;HPM_P1;HPM_P2
2021/12/18 00:01:24;;;;;;;;;;;29.40;92.30;;;;;;5055979;28;19909;-81
2021/12/18 00:03:50;;;;;;;;;;;29.50;91.80;;;;;;5055866;28;20362;-81
2021/12/18 00:06:17;;;;;;;;;;;29.60;92.20;;;;;;5054724;28;19930;-81
2021/12/18 00:08:44;;;;;;;;;;;29.70;92.00;;;;;;5055772;28;20332;-81
2021/12/18 00:11:10;;;;;;;;;;;29.90;91.50;;;;;;5054553;28;19912;-81
2021/12/18 00:13:40;;;;;;;;;;;30.10;91.70;;;;;;5054579;28;19916;-81
2021/12/18 00:16:07;;;;;;;;;;;30.20;91.50;;;;;;5055723;28;20418;-81
2021/12/18 00:18:35;;;;;;;;;;;30.40;91.10;;;;;;5054411;28;19909;-81
2021/12/18 00:21:02;;;;;;;;;;;30.50;90.80;;;;;;5055679;28;19962;-81
2021/12/18 00:23:29;;;;;;;;;;;30.50;90.80;;;;;;5055568;28;19947;-80
2021/12/18 00:25:55;;;;;;;;;;;30.60;91.20;;;;;;5055555;28;19921;-80
2021/12/18 00:28:22;;;;;;;;;;;30.70;91.00;;;;;;5055452;28;20353;-80
2021/12/18 00:30:49;;;;;;;;;;;30.80;91.10;;;;;;5055380;28;19952;-80
2021/12/18 00:33:15;;;;;;;;;;;31.00;90.40;;;;;;5055430;28;19999;-80
2021/12/18 00:35:42;;;;;;;;;;;31.10;90.10;;;;;;5055254;28;20284;-80
2021/12/18 00:38:09;;;;;;;;;;;31.20;90.40;;;;;;5054082;28;19909;-80
2021/12/18 00:40:47;;;;;;;;;;;31.50;90.10;;;;;;5055217;28;20118;-80
2021/12/18 00:43:27;;;;;;;;;;;31.70;89.20;;;;;;5055222;28;19909;-80
2021/12/18 00:45:54;;;;;;;;;;;31.90;87.40;;;;;;5055228;28;19916;-80
2021/12/18 00:48:20;;;;;;;;;;;31.90;87.70;;;;;;5055012;28;19924;-80
2021/12/18 00:50:47;;;;;;;;;;;32.00;87.20;;;;;;5055160;28;19932;-80
2021/12/18 00:53:14;;;;;;;;;;;32.10;87.10;;;;;;5054832;28;19909;-79
2021/12/18 00:55:41;;;;;;;;;;;32.30;86.10;;;;;;5054964;28;20006;-80
2021/12/18 00:58:07;;;;;;;;;;;32.40;86.50;;;;;;5054471;28;19912;-80
2021/12/18 01:00:34;;;;;;;;;;;32.50;85.60;;;;;;5054818;28;19909;-80
2021/12/18 01:03:01;;;;;;;;;;;32.70;85.30;;;;;;5053673;28;19908;-80
2021/12/18 01:05:29;;;;;;;;;;;32.90;84.60;;;;;;5055018;28;19909;-80
2021/12/18 01:07:57;;;;;;;;;;;33.00;84.40;;;;;;5054722;28;19913;-80
2021/12/18 01:13:13;;;;;;;;;;;33.40;83.30;;;;;;5054629;28;19972;-78
2021/12/18 01:15:48;;;;;;;;;;;33.50;82.60;;;;;;5053441;28;19908;-79
2021/12/18 01:23:44;;;;;;;;;;;33.70;78.90;;;;;;5054854;28;20057;-79
2021/12/18 01:26:13;;;;;;;;;;;33.80;79.80;;;;;;5054454;28;19909;-79
2021/12/18 01:28:39;;;;;;;;;;;34.00;78.80;;;;;;5054263;28;20381;-78
2021/12/18 01:31:06;;;;;;;;;;;34.30;78.20;;;;;;5054515;28;20006;-78
2021/12/18 01:33:33;;;;;;;;;;;34.50;77.50;;;;;;5052928;28;20331;-78
2021/12/18 01:36:01;;;;;;;;;;;34.70;77.20;;;;;;5069836;28;20423;-79
2021/12/18 01:38:29;;;;;;;;;;;34.90;77.30;;;;;;5072556;28;19919;-80
2021/12/18 01:40:56;;;;;;;;;;;34.90;75.50;;;;;;5073876;28;19917;-80
2021/12/18 01:54:08;;;;;;;;;;;35.30;73.70;;;;;;5074188;28;19920;-82
2021/12/18 01:56:35;;;;;;;;;;;35.40;72.80;;;;;;5072880;28;20011;-81
2021/12/18 01:59:02;;;;;;;;;;;35.50;72.30;;;;;;5073745;28;19909;-75
2021/12/18 02:01:28;;;;;;;;;;;35.80;71.40;;;;;;5072821;28;19952;-77
2021/12/18 02:03:55;;;;;;;;;;;36.00;72.00;;;;;;5074940;28;19916;-80
2021/12/18 02:06:22;;;;;;;;;;;36.20;70.90;;;;;;5071191;28;19967;-81
2021/12/18 02:08:49;;;;;;;;;;;36.40;70.70;;;;;;5070503;28;19919;-76
2021/12/18 02:21:55;;;;;;;;;;;36.90;68.30;;;;;;5053900;28;20372;-74
2021/12/18 02:24:25;;;;;;;;;;;36.90;67.40;;;;;;5066259;28;19964;-80
2021/12/18 02:26:52;;;;;;;;;;;37.00;67.80;;;;;;5073740;28;19912;-82
2021/12/18 02:29:18;;;;;;;;;;;37.10;66.60;;;;;;5067226;28;20414;-82
2021/12/18 02:31:45;;;;;;;;;;;37.10;66.60;;;;;;5062731;28;19940;-82
2021/12/18 02:34:20;;;;;;;;;;;37.10;67.20;;;;;;5063062;28;19915;-83
2021/12/18 02:36:48;;;;;;;;;;;37.30;67.00;;;;;;5082566;28;19999;-73
2021/12/18 02:42:20;;;;;;;;;;;37.70;66.50;;;;;;5061476;28;20331;-81
2021/12/18 02:44:43;;;;;;;;;;;37.80;65.90;;;;;;5062234;28;20274;-80
2021/12/18 02:47:10;;;;;;;;;;;38.00;65.90;;;;;;5066393;28;20395;-81
2021/12/18 02:49:41;;;;;;;;;;;38.20;65.50;;;;;;5063473;28;19913;-81
2021/12/18 02:52:08;;;;;;;;;;;38.00;65.60;;;;;;5067546;28;19912;-82
2021/12/18 02:54:37;;;;;;;;;;;37.70;65.60;;;;;;5061650;28;19920;-82
2021/12/18 02:57:03;;;;;;;;;;;37.50;65.60;;;;;;5063233;28;19952;-82
2021/12/18 02:59:30;;;;;;;;;;;37.40;65.40;;;;;;5073514;28;19947;-83
2021/12/18 03:02:02;;;;;;;;;;;37.40;65.70;;;;;;5054701;28;20284;-82
2021/12/18 03:04:33;;;;;;;;;;;37.50;66.40;;;;;;5073323;28;19916;-81
2021/12/18 03:07:03;;;;;;;;;;;37.80;66.20;;;;;;5069299;28;20334;-81
2021/12/18 03:25:38;;;;;;;;;;;39.50;62.40;;;;;;5056880;28;20389;-73
2021/12/18 03:28:06;;;;;;;;;;;39.20;62.50;;;;;;5056710;28;19923;-70
2021/12/18 03:30:33;;;;;;;;;;;39.10;63.00;;;;;;5038986;28;19908;-76
2021/12/18 03:32:59;;;;;;;;;;;39.00;62.80;;;;;;5056413;28;19919;-80
2021/12/18 03:35:26;;;;;;;;;;;38.80;62.20;;;;;;5056583;28;19912;-79
2021/12/18 03:37:53;;;;;;;;;;;38.60;62.30;;;;;;5056498;28;19953;-78
2021/12/18 03:40:21;;;;;;;;;;;38.80;61.80;;;;;;5056412;28;20000;-80
2021/12/18 03:42:48;;;;;;;;;;;39.20;62.80;;;;;;5056448;28;19916;-79
2021/12/18 03:45:15;;;;;;;;;;;39.40;61.60;;;;;;5056322;28;19972;-79
2021/12/18 03:47:41;;;;;;;;;;;39.50;61.70;;;;;;5054959;28;20262;-79
2021/12/18 03:50:08;;;;;;;;;;;39.40;60.80;;;;;;5063031;28;19919;-76
2021/12/18 03:52:35;;;;;;;;;;;39.30;61.40;;;;;;5075854;28;19917;-70
2021/12/18 03:55:02;;;;;;;;;;;39.20;61.00;;;;;;5075491;28;19920;-75
2021/12/18 03:57:28;;;;;;;;;;;39.10;60.00;;;;;;5075861;28;20365;-78
2021/12/18 03:59:55;;;;;;;;;;;38.80;60.40;;;;;;5075960;28;19908;-78
2021/12/18 04:02:22;;;;;;;;;;;38.40;62.00;;;;;;5076202;28;19908;-78
2021/12/18 04:04:48;;;;;;;;;;;38.00;61.90;;;;;;5076165;28;19908;-79
2021/12/18 04:07:15;;;;;;;;;;;37.70;62.40;;;;;;5076228;28;19913;-79
2021/12/18 04:09:42;;;;;;;;;;;37.50;61.70;;;;;;5076343;28;19909;-77
2021/12/18 04:12:09;;;;;;;;;;;37.70;60.90;;;;;;5076044;28;19917;-78
2021/12/18 04:14:35;;;;;;;;;;;37.90;60.70;;;;;;5072199;28;19968;-77
2021/12/18 04:17:03;;;;;;;;;;;38.50;61.30;;;;;;5057280;28;20276;-76
2021/12/18 04:19:30;;;;;;;;;;;39.10;60.90;;;;;;5066000;28;20210;-77
2021/12/18 04:21:56;;;;;;;;;;;39.40;60.10;;;;;;5066164;28;19999;-78
2021/12/18 04:24:23;;;;;;;;;;;39.80;58.20;;;;;;5061111;28;19972;-78
2021/12/18 04:26:50;;;;;;;;;;;40.10;58.30;;;;;;5054342;28;19916;-78
2021/12/18 04:29:16;;;;;;;;;;;40.30;56.50;;;;;;5055816;28;19916;-78
2021/12/18 04:31:43;;;;;;;;;;;40.40;58.80;;;;;;5055451;28;19913;-83
2021/12/18 04:34:10;;;;;;;;;;;40.40;59.40;;;;;;5055232;28;19916;-78
2021/12/18 04:36:36;;;;;;;;;;;40.60;58.00;;;;;;5055603;28;19913;-75
2021/12/18 04:39:03;;;;;;;;;;;40.80;56.60;;;;;;5071070;28;19951;-78
2021/12/18 04:41:48;;;;;;;;;;;40.40;58.20;;;;;;5054657;28;19912;-78
2021/12/18 04:44:15;;;;;;;;;;;40.00;55.80;;;;;;5055732;28;19916;-77
2021/12/18 04:46:41;;;;;;;;;;;40.00;57.40;;;;;;5055448;28;19913;-71
2021/12/18 04:49:09;;;;;;;;;;;40.10;58.00;;;;;;5065106;28;19916;-74
2021/12/18 04:51:35;;;;;;;;;;;40.00;58.00;;;;;;5056156;28;20369;-72
2021/12/18 04:54:02;;;;;;;;;;;39.70;57.30;;;;;;5037185;28;20389;-71
2021/12/18 04:56:29;;;;;;;;;;;39.60;56.50;;;;;;5055273;28;19909;-75
2021/12/18 04:58:55;;;;;;;;;;;39.40;57.30;;;;;;5054974;28;19943;-72
2021/12/18 05:01:22;;;;;;;;;;;39.10;57.70;;;;;;5055177;28;19919;-80
2021/12/18 05:03:49;;;;;;;;;;;38.60;56.20;;;;;;5055139;28;19909;-81
2021/12/18 05:06:16;;;;;;;;;;;38.20;57.40;;;;;;5055292;28;19919;-81
2021/12/18 05:08:43;;;;;;;;;;;37.80;58.60;;;;;;5055069;28;19916;-73
2021/12/18 05:11:09;;;;;;;;;;;37.40;59.10;;;;;;5055053;28;20456;-80
2021/12/18 05:13:36;;;;;;;;;;;37.10;59.30;;;;;;5054895;28;19913;-80
2021/12/18 05:16:03;;;;;;;;;;;36.80;58.30;;;;;;5055114;28;19916;-76
2021/12/18 05:18:30;;;;;;;;;;;36.60;59.50;;;;;;5054530;28;19909;-75
2021/12/18 05:20:56;;;;;;;;;;;36.70;59.20;;;;;;5037036;28;19920;-80
2021/12/18 05:23:23;;;;;;;;;;;37.20;60.40;;;;;;5054576;28;19916;-78
2021/12/18 05:25:52;;;;;;;;;;;37.80;59.30;;;;;;5054471;28;19967;-81
2021/12/18 05:28:19;;;;;;;;;;;38.20;59.60;;;;;;5056352;28;19912;-81
2021/12/18 05:30:45;;;;;;;;;;;38.60;58.20;;;;;;5065808;28;19916;-81
2021/12/18 05:33:12;;;;;;;;;;;38.80;57.00;;;;;;5054632;28;20003;-80
2021/12/18 05:35:39;;;;;;;;;;;39.10;57.10;;;;;;5054751;28;19916;-81
2021/12/18 05:38:06;;;;;;;;;;;39.10;55.70;;;;;;5053093;28;19927;-73
2021/12/18 05:40:33;;;;;;;;;;;39.00;57.20;;;;;;5054299;28;19965;-78
2021/12/18 05:43:00;;;;;;;;;;;38.80;57.40;;;;;;5054131;28;19917;-79
2021/12/18 05:45:26;;;;;;;;;;;38.60;58.50;;;;;;5053208;28;19912;-81
2021/12/18 05:47:53;;;;;;;;;;;38.40;58.30;;;;;;5053992;28;19916;-78
2021/12/18 05:50:20;;;;;;;;;;;38.20;58.30;;;;;;5062425;28;19908;-81
2021/12/18 05:52:48;;;;;;;;;;;38.20;59.00;;;;;;5073898;28;19908;-81
2021/12/18 05:55:20;;;;;;;;;;;38.40;56.70;;;;;;5073874;28;20400;-81
2021/12/18 05:57:47;;;;;;;;;;;38.60;56.80;;;;;;5074125;28;19919;-81
2021/12/18 06:00:14;;;;;;;;;;;38.90;57.10;;;;;;5076005;28;19908;-83
2021/12/18 06:02:40;;;;;;;;;;;39.20;56.80;;;;;;5075086;28;19919;-83
2021/12/18 06:05:08;;;;;;;;;;;39.40;56.00;;;;;;5074387;28;19908;-83
2021/12/18 06:07:52;;;;;;;;;;;39.60;57.00;;;;;;5074029;28;19914;-83
2021/12/18 06:10:19;;;;;;;;;;;39.60;56.20;;;;;;5072803;28;19919;-83
2021/12/18 06:12:45;;;;;;;;;;;39.70;56.20;;;;;;5073964;28;19908;-82
2021/12/18 06:15:12;;;;;;;;;;;40.00;55.80;;;;;;5073720;28;19995;-83
2021/12/18 06:20:43;;;;;;;;;;;40.60;54.90;;;;;;5073478;28;19916;-83
2021/12/18 06:23:09;;;;;;;;;;;40.40;53.60;;;;;;5073741;28;19919;-83
2021/12/18 06:25:36;;;;;;;;;;;40.30;53.10;;;;;;5073799;28;20341;-80
2021/12/18 06:28:03;;;;;;;;;;;40.30;55.00;;;;;;5073683;28;19916;-83
2021/12/18 06:30:29;;;;;;;;;;;40.20;56.10;;;;;;5073642;28;19913;-86
2021/12/18 06:32:56;;;;;;;;;;;39.60;54.10;;;;;;5073547;28;19955;-82
2021/12/18 06:35:23;;;;;;;;;;;39.00;54.60;;;;;;5073645;28;20381;-83
2021/12/18 06:37:50;;;;;;;;;;;38.50;54.40;;;;;;5073639;28;19931;-82
2021/12/18 06:40:17;;;;;;;;;;;38.10;56.10;;;;;;5070936;28;19917;-82
2021/12/18 06:42:43;;;;;;;;;;;37.80;56.00;;;;;;5062769;28;20333;-79
2021/12/18 06:45:11;;;;;;;;;;;37.80;57.30;;;;;;5073516;28;19920;-83
2021/12/18 06:47:38;;;;;;;;;;;38.20;56.70;;;;;;5073607;28;20015;-84
2021/12/18 06:50:07;;;;;;;;;;;38.50;56.10;;;;;;5085471;28;19916;-83
2021/12/18 06:52:34;;;;;;;;;;;38.60;56.70;;;;;;5073164;28;20376;-80
2021/12/18 06:55:01;;;;;;;;;;;38.80;56.20;;;;;;5087284;28;19920;-83
2021/12/18 06:57:27;;;;;;;;;;;38.50;56.50;;;;;;5082136;28;20261;-84
2021/12/18 06:59:54;;;;;;;;;;;38.40;56.40;;;;;;5100258;28;19908;-82
2021/12/18 07:02:21;;;;;;;;;;;38.60;56.00;;;;;;5100292;28;19952;-83
2021/12/18 07:04:47;;;;;;;;;;;38.70;57.80;;;;;;5100191;28;20352;-82
2021/12/18 07:07:15;;;;;;;;;;;38.90;56.70;;;;;;5100312;28;20365;-83
2021/12/18 07:09:41;;;;;;;;;;;39.00;56.40;;;;;;5082267;28;19908;-80
2021/12/18 07:12:10;;;;;;;;;;;39.00;55.40;;;;;;5100140;28;19908;-77
2021/12/18 07:14:37;;;;;;;;;;;39.10;56.30;;;;;;5100182;28;20006;-78
2021/12/18 07:17:04;;;;;;;;;;;39.20;55.80;;;;;;5100150;28;19994;-77
2021/12/18 07:19:30;;;;;;;;;;;39.20;54.90;;;;;;5100017;28;20003;-78
2021/12/18 07:21:57;;;;;;;;;;;39.30;56.50;;;;;;5099975;28;19966;-79
2021/12/18 07:24:24;;;;;;;;;;;39.20;56.00;;;;;;5100058;28;19912;-78
2021/12/18 07:26:50;;;;;;;;;;;39.10;55.20;;;;;;5081828;28;19908;-78
2021/12/18 07:29:17;;;;;;;;;;;38.90;55.20;;;;;;5095657;28;20353;-81
2021/12/18 07:31:44;;;;;;;;;;;38.80;55.20;;;;;;5079705;28;20277;-79
2021/12/18 07:34:10;;;;;;;;;;;38.40;55.80;;;;;;5079644;28;19915;-79
2021/12/18 07:36:37;;;;;;;;;;;38.00;56.80;;;;;;5079639;28;19908;-77
2021/12/18 07:39:04;;;;;;;;;;;37.60;56.60;;;;;;5061613;28;19913;-77
2021/12/18 07:41:30;;;;;;;;;;;37.30;57.60;;;;;;5079436;28;20381;-79
2021/12/18 07:43:57;;;;;;;;;;;37.10;58.10;;;;;;5079598;28;19915;-80
2021/12/18 07:46:24;;;;;;;;;;;37.00;58.00;;;;;;5079534;28;19971;-80
2021/12/18 07:48:50;;;;;;;;;;;37.10;59.40;;;;;;5108638;28;20002;-79
2021/12/18 07:51:17;;;;;;;;;;;36.90;57.80;;;;;;5118137;28;19915;-79
2021/12/18 07:53:43;;;;;;;;;;;36.70;59.70;;;;;;5099542;28;19917;-79
2021/12/18 07:56:10;;;;;;;;;;;36.40;58.50;;;;;;5099657;28;19958;-79
2021/12/18 07:58:37;;;;;;;;;;;36.20;58.60;;;;;;5099495;28;20356;-80
2021/12/18 08:01:04;;;;;;;;;;;36.10;59.10;;;;;;5099559;28;19908;-78
2021/12/18 08:03:31;;;;;;;;;;;36.00;59.20;;;;;;5098292;28;19989;-78
2021/12/18 08:05:57;;;;;;;;;;;35.80;59.40;;;;;;5063410;28;20318;-79
2021/12/18 08:08:24;;;;;;;;;;;35.60;60.00;;;;;;5090141;28;19912;-77
2021/12/18 08:10:51;;;;;;;;;;;35.40;60.00;;;;;;5091348;28;19912;-73
2021/12/18 08:13:17;;;;;;;;;;;35.30;60.10;;;;;;5082289;28;19912;-78
2021/12/18 08:15:44;;;;;;;;;;;35.20;60.60;;;;;;5075965;28;19917;-77
2021/12/18 08:18:11;;;;;;;;;;;35.10;60.70;;;;;;5075780;28;19994;-78
2021/12/18 08:20:37;;;;;;;;;;;35.00;60.80;;;;;;5075795;28;20288;-78
2021/12/18 08:23:04;;;;;;;;;;;34.90;60.90;;;;;;5075824;28;19912;-78
2021/12/18 08:25:31;;;;;;;;;;;34.80;61.30;;;;;;5075896;28;19909;-78
2021/12/18 08:28:00;;;;;;;;;;;34.80;61.10;;;;;;5075771;28;19915;-78
2021/12/18 08:30:28;;;;;;;;;;;34.70;61.20;;;;;;5075705;28;19953;-78
2021/12/18 08:32:55;;;;;;;;;;;34.60;61.40;;;;;;5075571;28;19913;-78
2021/12/18 08:35:22;;;;;;;;;;;34.50;61.70;;;;;;5075746;28;19915;-78
2021/12/18 08:37:48;;;;;;;;;;;34.50;62.30;;;;;;5075374;28;19916;-79
2021/12/18 08:40:15;;;;;;;;;;;34.40;61.80;;;;;;5074783;28;19909;-79
2021/12/18 08:42:42;;;;;;;;;;;34.30;62.30;;;;;;5057379;28;19913;-78
2021/12/18 08:45:09;;;;;;;;;;;34.20;62.20;;;;;;5075364;28;19908;-78
2021/12/18 08:47:35;;;;;;;;;;;34.10;62.70;;;;;;5075493;28;19919;-78
2021/12/18 08:50:02;;;;;;;;;;;34.10;62.70;;;;;;5057621;28;19909;-79
2021/12/18 08:52:29;;;;;;;;;;;34.00;62.70;;;;;;5075316;28;19950;-78
2021/12/18 08:54:56;;;;;;;;;;;33.90;62.60;;;;;;5080517;28;20347;-79
2021/12/18 08:57:22;;;;;;;;;;;33.80;62.70;;;;;;5111905;28;20002;-80
2021/12/18 08:59:49;;;;;;;;;;;33.70;63.20;;;;;;5106417;28;19913;-80
2021/12/18 09:02:15;;;;;;;;;;;33.60;63.10;;;;;;5095087;28;19916;-74
2021/12/18 09:04:42;;;;;;;;;;;33.40;64.00;;;;;;5095250;28;20355;-76
2021/12/18 09:07:09;;;;;;;;;;;33.30;63.40;;;;;;5096985;28;20364;-76
2021/12/18 09:09:35;;;;;;;;;;;33.20;63.70;;;;;;5101299;28;19936;-80
2021/12/18 09:12:02;;;;;;;;;;;33.20;64.00;;;;;;5096144;28;19908;-75
2021/12/18 09:14:29;;;;;;;;;;;33.10;63.80;;;;;;5097955;28;19908;-76
2021/12/18 09:16:58;;;;;;;;;;;33.00;63.60;;;;;;5094992;28;19915;-72
2021/12/18 09:19:25;;;;;;;;;;;33.00;63.70;;;;;;5095064;28;19908;-72
2021/12/18 09:21:52;;;;;;;;;;;32.90;63.70;;;;;;5095277;28;19924;-72
2021/12/18 09:24:21;;;;;;;;;;;32.90;63.60;;;;;;5094819;28;19908;-75
2021/12/18 09:26:48;;;;;;;;;;;32.90;63.80;;;;;;5094596;28;20444;-73
2021/12/18 09:29:15;;;;;;;;;;;32.80;64.50;;;;;;5094518;28;19908;-73
2021/12/18 09:31:41;;;;;;;;;;;32.80;64.70;;;;;;5094570;28;19909;-74
2021/12/18 09:34:08;;;;;;;;;;;32.60;64.70;;;;;;5094471;28;19915;-74
2021/12/18 09:36:34;;;;;;;;;;;32.60;65.00;;;;;;5094311;28;19908;-73
2021/12/18 09:39:01;;;;;;;;;;;32.50;65.60;;;;;;5094439;28;19942;-73
2021/12/18 09:41:28;;;;;;;;;;;32.40;65.10;;;;;;5094175;28;20341;-73
2021/12/18 09:43:55;;;;;;;;;;;32.30;65.40;;;;;;5094266;28;19912;-73
2021/12/18 09:46:21;;;;;;;;;;;32.20;65.40;;;;;;5094276;28;19912;-73
2021/12/18 09:48:48;;;;;;;;;;;32.10;65.60;;;;;;5094200;28;20329;-73
2021/12/18 09:51:27;;;;;;;;;;;32.10;65.90;;;;;;5075911;28;19908;-73
2021/12/18 09:53:57;;;;;;;;;;;32.00;66.20;;;;;;5093929;28;19970;-73
2021/12/18 09:56:24;;;;;;;;;;;31.90;66.30;;;;;;5075862;28;19908;-73
2021/12/18 09:58:50;;;;;;;;;;;31.90;66.50;;;;;;5098670;28;19938;-77
2021/12/18 10:01:18;;;;;;;;;;;31.80;67.00;;;;;;5094141;28;20334;-73
2021/12/18 10:03:56;;;;;;;;;;;31.80;67.30;;;;;;5094070;28;19970;-72
2021/12/18 10:06:32;;;;;;;;;;;31.70;67.40;;;;;;5093618;28;19916;-73
2021/12/18 10:08:59;;;;;;;;;;;31.70;67.70;;;;;;5093799;28;20011;-74
2021/12/18 10:11:25;;;;;;;;;;;31.60;67.80;;;;;;5093859;28;19908;-72
2021/12/18 10:13:56;;;;;;;;;;;31.50;67.90;;;;;;5093806;28;19961;-72
2021/12/18 10:16:23;;;;;;;;;;;31.50;68.10;;;;;;5093177;28;19909;-74
2021/12/18 10:18:50;;;;;;;;;;;31.50;68.40;;;;;;5093594;28;19911;-77
2021/12/18 10:21:18;;;;;;;;;;;31.50;68.50;;;;;;5093617;28;19908;-73
2021/12/18 10:23:46;;;;;;;;;;;31.40;68.90;;;;;;5101592;28;19912;-75
2021/12/18 10:26:50;;;;;;;;;;;31.40;69.20;;;;;;5099103;28;19915;-75
2021/12/18 10:29:23;;;;;;;;;;;31.40;69.40;;;;;;4972338;28;20322;-72
2021/12/18 10:31:49;;;;;;;;;;;31.30;69.80;;;;;;4971815;28;19910;-74
2021/12/18 10:34:17;;;;;;;;;;;31.30;69.90;;;;;;5030886;28;20332;-74
2021/12/18 10:37:03;;;;;;;;;;;31.20;70.00;;;;;;5093515;28;19908;-72
2021/12/18 10:39:30;;;;;;;;;;;31.20;70.20;;;;;;5075197;28;19985;-74
2021/12/18 10:41:57;;;;;;;;;;;31.20;70.40;;;;;;5093132;28;20441;-72
2021/12/18 10:44:23;;;;;;;;;;;31.10;70.70;;;;;;5093194;28;19915;-75
2021/12/18 10:46:50;;;;;;;;;;;31.10;70.80;;;;;;5093328;28;19915;-73
2021/12/18 10:49:17;;;;;;;;;;;31.10;70.90;;;;;;5075141;28;19931;-72
2021/12/18 10:51:44;;;;;;;;;;;31.00;71.00;;;;;;5072860;28;20379;-75
2021/12/18 10:54:18;;;;;;;;;;;31.00;71.30;;;;;;5072878;28;19920;-73
2021/12/18 10:56:46;;;;;;;;;;;31.00;71.30;;;;;;5072462;28;20369;-73
2021/12/18 10:59:42;;;;;;;;;;;30.90;71.50;;;;;;5073890;28;19908;-75
2021/12/18 11:02:12;;;;;;;;;;;30.90;71.70;;;;;;5073361;28;19954;-74
2021/12/18 11:04:39;;;;;;;;;;;30.80;71.50;;;;;;5093253;28;19909;-74
2021/12/18 11:07:18;;;;;;;;;;;30.80;71.60;;;;;;5075305;28;19908;-74
2021/12/18 11:15:14;;;;;;;;;;;30.70;72.20;;;;;;5073052;28;19915;-72
2021/12/18 11:17:41;;;;;;;;;;;30.70;72.20;;;;;;5085011;28;19912;-74
2021/12/18 11:20:08;;;;;;;;;;;30.70;72.20;;;;;;5087247;28;19961;-78
2021/12/18 11:22:35;;;;;;;;;;;30.70;72.30;;;;;;5091753;28;20006;-73
2021/12/18 11:25:03;;;;;;;;;;;30.60;72.30;;;;;;5108014;28;19912;-72
2021/12/18 11:27:32;;;;;;;;;;;30.60;72.30;;;;;;5113905;28;19907;-76
2021/12/18 11:30:11;;;;;;;;;;;30.60;72.20;;;;;;5078603;28;20386;-75
2021/12/18 11:32:42;;;;;;;;;;;30.60;72.20;;;;;;5106235;28;19911;-75
2021/12/18 11:35:10;;;;;;;;;;;30.60;72.60;;;;;;5101111;28;19908;-77
2021/12/18 11:37:46;;;;;;;;;;;30.60;72.30;;;;;;5092856;28;20012;-75
2021/12/18 11:40:16;;;;;;;;;;;30.50;72.30;;;;;;5072857;28;19912;-74
2021/12/18 11:42:43;;;;;;;;;;;30.50;72.40;;;;;;5067154;28;19962;-76
2021/12/18 11:45:10;;;;;;;;;;;30.50;72.50;;;;;;5107096;28;19914;-76
2021/12/18 11:47:37;;;;;;;;;;;30.50;72.50;;;;;;5104573;28;19912;-77
2021/12/18 11:50:05;;;;;;;;;;;30.50;72.70;;;;;;5077507;28;20353;-76
2021/12/18 11:52:50;;;;;;;;;;;30.50;72.60;;;;;;5103876;28;20328;-77
2021/12/18 11:55:17;;;;;;;;;;;30.50;72.90;;;;;;5104241;28;20433;-80
2021/12/18 11:57:50;;;;;;;;;;;30.40;73.40;;;;;;5104514;28;20344;-75
2021/12/18 12:00:23;;;;;;;;;;;30.40;73.80;;;;;;5104668;28;19939;-76
2021/12/18 12:02:50;;;;;;;;;;;30.40;73.90;;;;;;5101615;28;19912;-77
2021/12/18 12:05:17;;;;;;;;;;;30.30;73.90;;;;;;5101316;28;19916;-76
2021/12/18 12:07:45;;;;;;;;;;;30.30;73.70;;;;;;5106086;28;19934;-76
2021/12/18 12:10:21;;;;;;;;;;;30.40;73.90;;;;;;5104496;28;19955;-76
2021/12/18 12:12:55;;;;;;;;;;;30.30;67.50;;;;;;5093094;28;20341;-75
2021/12/18 12:15:25;;;;;;;;;;;30.00;66.70;;;;;;5094687;28;19969;-76
2021/12/18 12:17:56;;;;;;;;;;;29.50;67.80;;;;;;5095723;28;19962;-75
2021/12/18 12:20:39;;;;;;;;;;;29.00;69.00;;;;;;5077391;28;19935;-75
2021/12/18 12:23:05;;;;;;;;;;;28.50;70.70;;;;;;5095942;28;20018;-75
2021/12/18 12:25:39;;;;;;;;;;;28.00;72.60;;;;;;5095936;28;19908;-75
2021/12/18 12:28:10;;;;;;;;;;;27.50;75.00;;;;;;5095752;28;20017;-76
2021/12/18 12:30:43;;;;;;;;;;;26.90;76.70;;;;;;5077516;28;19912;-76
2021/12/18 12:33:13;;;;;;;;;;;26.50;78.50;;;;;;5095712;28;19915;-77
2021/12/18 12:36:12;;;;;;;;;;;26.10;80.50;;;;;;5095388;28;20280;-76
2021/12/18 12:38:42;;;;;;;;;;;25.80;81.70;;;;;;5049934;28;20003;-76
2021/12/18 12:41:28;;;;;;;;;;;25.50;85.20;;;;;;5076892;28;19912;-76
2021/12/18 12:43:56;;;;;;;;;;;25.20;86.50;;;;;;5095517;28;19954;-76
2021/12/18 12:46:24;;;;;;;;;;;24.80;88.90;;;;;;5077023;28;19938;-76
2021/12/18 12:49:01;;;;;;;;;;;24.70;89.70;;;;;;5077006;28;19912;-75
2021/12/18 12:51:47;;;;;;;;;;;24.50;90.80;;;;;;5095403;28;19915;-75
2021/12/18 12:54:32;;;;;;;;;;;24.30;91.60;;;;;;5094708;28;19924;-75
2021/12/18 12:57:17;;;;;;;;;;;24.10;92.20;;;;;;5095130;28;19908;-75
2021/12/18 12:59:44;;;;;;;;;;;24.10;93.20;;;;;;5095043;28;19919;-75
2021/12/18 13:02:11;;;;;;;;;;;24.00;94.20;;;;;;5095295;28;19918;-78
2021/12/18 13:04:38;;;;;;;;;;;23.90;95.50;;;;;;5095113;28;20449;-76
2021/12/18 13:07:07;;;;;;;;;;;23.90;96.70;;;;;;5094931;28;19951;-75
2021/12/18 13:09:34;;;;;;;;;;;23.70;98.30;;;;;;5094629;28;19948;-76
2021/12/18 13:12:02;;;;;;;;;;;23.60;99.90;;;;;;5094831;28;19908;-75
2021/12/18 13:14:38;;;;;;;;;;;23.60;99.90;;;;;;5094947;28;19954;-75
2021/12/18 13:17:25;;;;;;;;;;;23.60;99.90;;;;;;5094638;28;19953;-76
2021/12/18 13:20:12;;;;;;;;;;;23.60;99.90;;;;;;5094543;28;19912;-76
2021/12/18 13:22:38;;;;;;;;;;;23.70;99.90;;;;;;5076237;28;19918;-75
2021/12/18 13:25:09;;;;;;;;;;;23.80;99.90;;;;;;5094492;28;20378;-76
2021/12/18 13:27:37;;;;;;;;;;;23.80;99.90;;;;;;5061801;28;19912;-76
2021/12/18 13:30:09;;;;;;;;;;;23.90;99.90;;;;;;5094500;28;19948;-76
2021/12/18 13:32:36;;;;;;;;;;;23.90;99.90;;;;;;5094095;28;20006;-76
2021/12/18 13:35:13;;;;;;;;;;;23.90;99.90;;;;;;5076835;28;20025;-76
2021/12/18 13:37:39;;;;;;;;;;;23.80;99.90;;;;;;5086032;28;19912;-75
2021/12/18 13:40:16;;;;;;;;;;;23.70;99.90;;;;;;5094288;28;19914;-76
2021/12/18 13:42:42;;;;;;;;;;;23.70;99.90;;;;;;5094167;28;19916;-75
2021/12/18 13:45:09;;;;;;;;;;;23.70;99.90;;;;;;5094039;28;19919;-76
2021/12/18 13:47:38;;;;;;;;;;;23.70;99.90;;;;;;5094241;28;19947;-76
2021/12/18 13:50:22;;;;;;;;;;;23.70;99.90;;;;;;5094253;28;19908;-76
2021/12/18 13:52:56;;;;;;;;;;;23.80;99.90;;;;;;5094219;28;19908;-76
2021/12/18 13:55:29;;;;;;;;;;;23.80;99.90;;;;;;5092380;28;19955;-76
2021/12/18 13:58:07;;;;;;;;;;;23.90;99.90;;;;;;5094093;28;20353;-76
2021/12/18 14:00:52;;;;;;;;;;;23.80;99.90;;;;;;5093857;28;19915;-76
2021/12/18 14:03:23;;;;;;;;;;;23.80;99.90;;;;;;5093750;28;19917;-76
2021/12/18 14:05:50;;;;;;;;;;;23.80;99.90;;;;;;5091883;28;19908;-76
2021/12/18 14:08:17;;;;;;;;;;;23.70;99.90;;;;;;5093736;28;19966;-76
2021/12/18 14:10:44;;;;;;;;;;;23.80;99.90;;;;;;5093751;28;20280;-76
2021/12/18 14:13:11;;;;;;;;;;;23.90;99.90;;;;;;5093821;28;19908;-76
2021/12/18 14:15:40;;;;;;;;;;;23.90;99.90;;;;;;5093656;28;20002;-76
2021/12/18 14:18:25;;;;;;;;;;;23.80;99.90;;;;;;5094008;28;19974;-76
2021/12/18 14:20:52;;;;;;;;;;;23.90;99.90;;;;;;5093633;28;19916;-76
2021/12/18 14:23:19;;;;;;;;;;;23.90;99.90;;;;;;5093601;28;19912;-76
2021/12/18 14:25:46;;;;;;;;;;;23.80;99.90;;;;;;5075439;28;19908;-76
2021/12/18 14:28:19;;;;;;;;;;;23.80;99.90;;;;;;5093417;28;19916;-76
2021/12/18 14:30:46;;;;;;;;;;;23.70;99.90;;;;;;5075442;28;19911;-76
2021/12/18 14:33:17;;;;;;;;;;;23.70;99.90;;;;;;5093440;28;19909;-76
2021/12/18 14:35:48;;;;;;;;;;;23.70;99.90;;;;;;5076187;28;19957;-76
2021/12/18 14:38:18;;;;;;;;;;;23.80;99.90;;;;;;5093305;28;19916;-76
2021/12/18 14:40:45;;;;;;;;;;;23.80;99.90;;;;;;5093234;28;20006;-76
2021/12/18 14:43:15;;;;;;;;;;;23.80;99.90;;;;;;5075112;28;19912;-76
2021/12/18 14:45:42;;;;;;;;;;;23.80;99.90;;;;;;5093211;28;19908;-76
2021/12/18 14:48:09;;;;;;;;;;;23.80;99.90;;;;;;5093246;28;19908;-76
2021/12/18 14:50:40;;;;;;;;;;;23.90;99.90;;;;;;5093212;28;19919;-76
2021/12/18 14:53:10;;;;;;;;;;;23.90;99.90;;;;;;5092098;28;20292;-76
2021/12/18 14:55:43;;;;;;;;;;;23.90;99.90;;;;;;5053104;28;19925;-76
2021/12/18 14:58:15;;;;;;;;;;;23.90;99.90;;;;;;5044709;28;19916;-76
2021/12/18 15:00:47;;;;;;;;;;;23.90;99.90;;;;;;5038101;28;19913;-76
2021/12/18 15:03:18;;;;;;;;;;;23.90;99.90;;;;;;5032950;28;20357;-76
2021/12/18 15:05:45;;;;;;;;;;;23.90;99.90;;;;;;5033004;28;19920;-76
2021/12/18 15:08:19;;;;;;;;;;;23.80;99.90;;;;;;5032923;28;19909;-77
2021/12/18 15:10:56;;;;;;;;;;;23.80;99.90;;;;;;5032931;28;19984;-76
2021/12/18 15:13:24;;;;;;;;;;;23.70;99.90;;;;;;5033020;28;19972;-76
2021/12/18 15:16:10;;;;;;;;;;;23.70;99.90;;;;;;5033145;28;19956;-76
2021/12/18 15:18:37;;;;;;;;;;;23.60;99.90;;;;;;5056296;28;20003;-76
2021/12/18 15:21:04;;;;;;;;;;;23.60;99.90;;;;;;5056767;28;19963;-75
2021/12/18 15:23:31;;;;;;;;;;;23.70;99.90;;;;;;5056767;28;19912;-75